Time;durP1;ratioP1;P1;durP2;ratioP2;P2;SDS_P1;SDS_P2;PMS_P1;PMS_P2;Temp;Humidity;BMP_temperature;BMP_pressure;BME280_temperature;BME280_humidity;BME280_pressure;Samples;Min_cycle;Max_cycle;Signal;HPM_P1;HPM_P2
2023/03/25 00:00:57;;;;;;;4.47;1.70;;;15.00;95.60;;;;;;4976449;28;20396;-74
2023/03/25 00:03:25;;;;;;;5.95;2.20;;;15.00;95.70;;;;;;4981205;28;23923;-75
2023/03/25 00:05:52;;;;;;;6.75;2.20;;;14.90;95.80;;;;;;4970518;28;20027;-74
2023/03/25 00:08:17;;;;;;;5.15;2.00;;;14.90;96.00;;;;;;4973964;28;20060;-76
2023/03/25 00:10:43;;;;;;;4.90;1.80;;;14.80;96.10;;;;;;4975419;28;20572;-75
2023/03/25 00:13:12;;;;;;;5.22;1.80;;;14.80;96.10;;;;;;4994377;28;20070;-75
2023/03/25 00:15:44;;;;;;;7.47;2.13;;;14.90;96.00;;;;;;4981953;28;20027;-75
2023/03/25 00:18:11;;;;;;;7.45;2.22;;;14.90;96.00;;;;;;4977128;28;20688;-75
2023/03/25 00:20:39;;;;;;;5.78;2.33;;;14.80;96.30;;;;;;4977965;28;20045;-74
2023/03/25 00:23:06;;;;;;;8.45;2.53;;;14.60;96.50;;;;;;4975630;28;20049;-75
2023/03/25 00:25:32;;;;;;;5.90;1.95;;;14.60;96.60;;;;;;4976436;28;20031;-75
2023/03/25 00:27:58;;;;;;;5.53;2.15;;;14.60;96.80;;;;;;4977971;28;20038;-77
2023/03/25 00:30:25;;;;;;;6.50;2.83;;;14.60;96.60;;;;;;4978063;28;20576;-74
2023/03/25 00:32:51;;;;;;;14.95;8.95;;;14.60;96.50;;;;;;4975355;28;20485;-74
2023/03/25 00:35:22;;;;;;;15.02;9.20;;;14.50;96.40;;;;;;4981485;28;20039;-75
2023/03/25 00:37:56;;;;;;;8.85;4.13;;;14.40;96.50;;;;;;4976376;28;20030;-74
2023/03/25 00:40:22;;;;;;;11.05;7.38;;;14.50;96.60;;;;;;4985330;28;20033;-76
2023/03/25 00:42:49;;;;;;;19.58;10.55;;;14.60;96.50;;;;;;4988463;28;20448;-74
2023/03/25 00:45:15;;;;;;;21.27;12.18;;;14.50;96.60;;;;;;4977803;28;20042;-76
2023/03/25 00:47:42;;;;;;;18.55;11.80;;;14.20;96.90;;;;;;4974822;28;20030;-74
2023/03/25 00:50:08;;;;;;;10.98;6.85;;;14.30;96.90;;;;;;4978165;28;20475;-74
2023/03/25 00:52:34;;;;;;;9.48;5.15;;;14.30;97.00;;;;;;4979413;28;20041;-74
2023/03/25 00:55:00;;;;;;;15.98;7.10;;;14.30;97.20;;;;;;4992805;28;20030;-74
2023/03/25 00:57:26;;;;;;;20.52;12.02;;;14.30;97.20;;;;;;4981399;28;20046;-74
2023/03/25 00:59:52;;;;;;;17.05;10.13;;;14.30;97.00;;;;;;4981153;28;20030;-74
2023/03/25 01:02:20;;;;;;;17.15;10.35;;;14.20;97.10;;;;;;4975884;28;20113;-74
2023/03/25 01:04:48;;;;;;;17.73;9.80;;;14.10;97.20;;;;;;4983322;28;20513;-75
2023/03/25 01:07:18;;;;;;;11.40;6.82;;;13.90;97.60;;;;;;4981237;28;20061;-75
2023/03/25 01:09:46;;;;;;;10.02;4.00;;;14.00;97.70;;;;;;4980896;28;20041;-74
2023/03/25 01:12:12;;;;;;;8.10;3.78;;;14.00;98.00;;;;;;4988772;28;20026;-74
2023/03/25 01:14:38;;;;;;;6.15;3.38;;;14.00;98.10;;;;;;4963243;28;20459;-74
2023/03/25 01:17:05;;;;;;;9.40;3.38;;;14.00;98.10;;;;;;4978246;28;20038;-75
2023/03/25 01:19:31;;;;;;;8.98;3.05;;;13.90;98.50;;;;;;4981300;28;20027;-74
2023/03/25 01:21:56;;;;;;;8.90;2.90;;;13.80;98.50;;;;;;4986283;28;20473;-74
2023/03/25 01:24:22;;;;;;;6.40;3.40;;;13.80;98.60;;;;;;4993893;28;20050;-75
2023/03/25 01:26:48;;;;;;;6.22;3.08;;;13.80;98.70;;;;;;4989816;28;20084;-74
2023/03/25 01:29:16;;;;;;;9.43;2.92;;;13.80;98.90;;;;;;4987096;28;20025;-75
2023/03/25 01:31:42;;;;;;;9.95;3.70;;;13.80;98.80;;;;;;5005661;28;20557;-75
2023/03/25 01:34:07;;;;;;;7.15;3.53;;;13.80;98.80;;;;;;4982499;28;20110;-74
2023/03/25 01:36:35;;;;;;;8.68;3.15;;;13.80;98.80;;;;;;4980632;28;20035;-74
2023/03/25 01:39:01;;;;;;;6.28;3.17;;;13.70;98.80;;;;;;4979584;28;20026;-75
2023/03/25 01:41:28;;;;;;;5.57;3.20;;;13.60;99.20;;;;;;4981283;28;20081;-74
2023/03/25 01:44:06;;;;;;;7.85;3.00;;;13.60;99.20;;;;;;4991290;28;20133;-75
2023/03/25 01:46:32;;;;;;;9.38;3.97;;;13.50;99.40;;;;;;4986747;28;20326;-73
2023/03/25 01:49:00;;;;;;;7.60;4.38;;;13.40;99.40;;;;;;4992017;28;20477;-75
2023/03/25 01:51:32;;;;;;;6.55;3.38;;;13.20;99.60;;;;;;4975700;28;20164;-75
2023/03/25 01:53:58;;;;;;;9.82;3.40;;;13.30;99.80;;;;;;4982030;28;20030;-74
2023/03/25 01:56:32;;;;;;;9.20;3.90;;;13.50;99.60;;;;;;4982062;28;20503;-74
2023/03/25 01:59:03;;;;;;;9.70;4.43;;;13.40;99.70;;;;;;4983077;28;20030;-74
2023/03/25 02:01:30;;;;;;;10.27;4.55;;;13.30;99.80;;;;;;4985559;28;20030;-73
2023/03/25 02:04:01;;;;;;;9.95;5.00;;;13.20;99.70;;;;;;4988483;28;20035;-74
2023/03/25 02:06:39;;;;;;;8.95;4.30;;;13.20;99.90;;;;;;4993471;28;20056;-75
2023/03/25 02:09:07;;;;;;;8.35;4.18;;;13.00;99.90;;;;;;4988042;28;20034;-75
2023/03/25 02:11:34;;;;;;;7.10;4.00;;;13.00;99.90;;;;;;4981463;28;20473;-75
2023/03/25 02:14:05;;;;;;;10.10;3.90;;;13.00;99.90;;;;;;4983099;28;20030;-74
2023/03/25 02:16:46;;;;;;;10.02;4.18;;;13.10;99.90;;;;;;4988790;28;20109;-75
2023/03/25 02:19:31;;;;;;;8.57;3.58;;;13.30;99.90;;;;;;5000360;28;20025;-74
2023/03/25 02:22:06;;;;;;;6.97;3.20;;;13.20;99.90;;;;;;4981277;28;20023;-74
2023/03/25 02:24:34;;;;;;;;;;;13.30;99.90;;;;;;4985965;28;20054;-74
2023/03/25 02:27:12;;;;;;;6.35;3.03;;;13.30;99.90;;;;;;4979022;28;19910;-74
2023/03/25 02:30:28;;;;;;;7.30;3.97;;;13.20;99.90;;;;;;4979613;28;20022;-75
2023/03/25 02:33:16;;;;;;;6.97;3.55;;;13.50;99.90;;;;;;4983313;28;20440;-74
2023/03/25 02:36:01;;;;;;;10.05;3.65;;;13.30;99.90;;;;;;4986773;28;20060;-74
2023/03/25 02:38:40;;;;;;;6.32;3.33;;;13.20;99.90;;;;;;4977380;28;20090;-74
2023/03/25 02:41:35;;;;;;;11.18;4.05;;;12.90;99.90;;;;;;4986939;28;20030;-74
2023/03/25 02:44:15;;;;;;;7.68;4.13;;;12.90;99.90;;;;;;4978030;28;20114;-73
2023/03/25 02:46:47;;;;;;;8.65;3.60;;;13.00;99.90;;;;;;4987434;28;20369;-74
2023/03/25 02:49:28;;;;;;;8.68;4.18;;;12.90;99.90;;;;;;4976402;28;20042;-74
2023/03/25 02:52:10;;;;;;;9.00;4.47;;;12.90;99.90;;;;;;4985138;28;20023;-73
2023/03/25 02:54:40;;;;;;;10.10;3.95;;;12.90;99.90;;;;;;4979374;28;20117;-75
2023/03/25 02:57:09;;;;;;;7.30;4.03;;;12.90;99.90;;;;;;4981299;28;20038;-74
2023/03/25 02:59:37;;;;;;;7.65;3.78;;;12.80;99.90;;;;;;4979727;28;20023;-74
2023/03/25 03:02:07;;;;;;;8.93;3.92;;;12.90;99.90;;;;;;4984601;28;20096;-74
2023/03/25 03:04:43;;;;;;;7.38;3.53;;;12.90;99.90;;;;;;4980573;28;20043;-75
2023/03/25 03:07:12;;;;;;;7.90;3.92;;;12.90;99.90;;;;;;4989569;28;20472;-74
2023/03/25 03:09:44;;;;;;;6.35;4.55;;;12.60;99.90;;;;;;4988165;28;20026;-74
2023/03/25 03:12:43;;;;;;;7.72;3.58;;;12.60;99.90;;;;;;4975786;28;20121;-75
2023/03/25 03:15:09;;;;;;;7.85;3.65;;;12.80;99.90;;;;;;4978183;28;20034;-75
2023/03/25 03:17:50;;;;;;;9.93;4.03;;;13.00;99.90;;;;;;4984233;28;20033;-74
2023/03/25 03:20:26;;;;;;;9.95;4.22;;;13.00;99.90;;;;;;4977470;28;20031;-75
2023/03/25 03:23:16;;;;;;;8.13;3.78;;;13.00;99.90;;;;;;4986354;28;20429;-74
2023/03/25 03:25:42;;;;;;;9.70;4.40;;;13.00;99.90;;;;;;4978048;28;20027;-74
2023/03/25 03:28:11;;;;;;;6.40;3.53;;;13.10;99.90;;;;;;4974721;28;20030;-74
2023/03/25 03:30:39;;;;;;;8.13;3.83;;;13.10;99.90;;;;;;4974956;28;20043;-74
2023/03/25 03:33:26;;;;;;;8.18;3.45;;;12.90;99.90;;;;;;4974798;28;20041;-75
2023/03/25 03:36:00;;;;;;;8.77;3.45;;;12.80;99.90;;;;;;4975248;28;20516;-74
2023/03/25 03:38:33;;;;;;;8.23;3.92;;;12.70;99.90;;;;;;4981197;28;20093;-74
2023/03/25 03:41:03;;;;;;;7.55;3.65;;;12.60;99.90;;;;;;4981708;28;20041;-75
2023/03/25 03:43:49;;;;;;;7.35;3.75;;;12.40;99.90;;;;;;4981085;28;20074;-74
2023/03/25 03:46:27;;;;;;;6.88;3.42;;;12.50;99.90;;;;;;4980493;28;20125;-73
2023/03/25 03:49:01;;;;;;;10.50;4.05;;;12.30;99.90;;;;;;4974856;28;20031;-73
2023/03/25 03:51:29;;;;;;;;;;;12.10;99.90;;;;;;4977008;28;20034;-74
2023/03/25 03:54:09;;;;;;;10.55;5.25;;;12.30;99.90;;;;;;4982755;28;19917;-74
2023/03/25 03:57:01;;;;;;;12.90;5.35;;;12.40;99.90;;;;;;4980667;28;20041;-74
2023/03/25 04:00:25;;;;;;;11.18;4.68;;;12.20;99.90;;;;;;4977753;28;21131;-73
2023/03/25 04:03:23;;;;;;;6.88;4.20;;;12.30;99.90;;;;;;4943529;28;20042;-74
2023/03/25 04:06:23;;;;;;;9.52;4.60;;;12.30;99.90;;;;;;4940569;28;20057;-73
2023/03/25 04:09:27;;;;;;;9.07;4.00;;;12.30;99.90;;;;;;4958799;28;20049;-74
2023/03/25 04:11:59;;;;;;;10.50;4.07;;;12.20;99.90;;;;;;4976149;28;20031;-74
2023/03/25 04:14:25;;;;;;;8.75;3.50;;;12.20;99.90;;;;;;4981418;28;20038;-75
2023/03/25 04:16:53;;;;;;;8.07;3.75;;;12.20;99.90;;;;;;4976239;28;20128;-74
2023/03/25 04:19:19;;;;;;;9.23;4.90;;;12.10;99.90;;;;;;4966176;28;20166;-76
2023/03/25 04:21:48;;;;;;;12.10;4.82;;;12.10;99.90;;;;;;4968771;28;20038;-73
2023/03/25 04:24:15;;;;;;;8.77;4.50;;;12.10;99.90;;;;;;4971896;28;20038;-74
2023/03/25 04:26:42;;;;;;;10.63;5.15;;;12.20;99.90;;;;;;4976858;28;20042;-73
2023/03/25 04:29:08;;;;;;;11.35;4.93;;;12.10;99.90;;;;;;4972422;28;20038;-73
2023/03/25 04:31:34;;;;;;;10.93;4.60;;;12.10;99.90;;;;;;4972091;28;20129;-74
2023/03/25 04:34:03;;;;;;;8.07;4.28;;;12.20;99.90;;;;;;4971004;28;20093;-75
2023/03/25 04:36:32;;;;;;;9.77;4.80;;;12.30;99.90;;;;;;4968856;28;20089;-74
2023/03/25 04:38:58;;;;;;;11.85;4.80;;;12.20;99.90;;;;;;4976756;28;20128;-73
2023/03/25 04:41:25;;;;;;;7.28;4.13;;;12.30;99.90;;;;;;4976971;28;20085;-74
2023/03/25 04:43:50;;;;;;;8.38;4.68;;;12.20;99.90;;;;;;4976723;28;20043;-74
2023/03/25 04:46:17;;;;;;;8.52;4.30;;;12.10;99.90;;;;;;4987501;28;20401;-75
2023/03/25 04:48:44;;;;;;;11.38;4.85;;;12.10;99.90;;;;;;4973211;28;20113;-73
2023/03/25 04:51:11;;;;;;;7.25;4.82;;;12.20;99.90;;;;;;4975762;28;20186;-73
2023/03/25 04:53:38;;;;;;;10.70;4.13;;;12.20;99.90;;;;;;4968724;28;20097;-73
2023/03/25 04:56:05;;;;;;;8.20;4.40;;;12.20;99.90;;;;;;4972375;28;20026;-74
2023/03/25 04:58:31;;;;;;;8.25;4.97;;;12.10;99.90;;;;;;4968747;28;20027;-77
2023/03/25 05:01:04;;;;;;;9.18;5.25;;;12.10;99.90;;;;;;4973246;28;20457;-75
2023/03/25 05:03:31;;;;;;;10.00;5.50;;;12.00;99.90;;;;;;4987440;28;20133;-74
2023/03/25 05:05:57;;;;;;;8.63;4.90;;;12.10;99.90;;;;;;4982631;28;20033;-75
2023/03/25 05:08:23;;;;;;;7.35;4.47;;;12.20;99.90;;;;;;4970856;28;20027;-75
2023/03/25 05:10:49;;;;;;;8.20;4.90;;;12.20;99.90;;;;;;4980473;28;20018;-76
2023/03/25 05:13:15;;;;;;;8.70;4.72;;;12.00;99.90;;;;;;4974716;28;20833;-75
2023/03/25 05:15:42;;;;;;;9.98;4.40;;;12.00;99.90;;;;;;4973798;28;20035;-75
2023/03/25 05:18:09;;;;;;;11.25;5.75;;;12.10;99.90;;;;;;4978272;28;20022;-74
2023/03/25 05:20:38;;;;;;;8.10;5.32;;;12.00;99.90;;;;;;4977153;28;20041;-73
2023/03/25 05:23:05;;;;;;;9.20;5.80;;;12.00;99.90;;;;;;4977630;28;20082;-75
2023/03/25 05:25:33;;;;;;;10.90;5.07;;;12.10;99.90;;;;;;4975271;28;20065;-74
2023/03/25 05:28:04;;;;;;;7.93;4.90;;;12.10;99.90;;;;;;4973764;28;20030;-75
2023/03/25 05:30:31;;;;;;;9.38;5.25;;;12.10;99.90;;;;;;4978037;28;20034;-76
2023/03/25 05:32:58;;;;;;;10.50;5.45;;;12.10;99.90;;;;;;4979528;28;20025;-75
2023/03/25 05:35:25;;;;;;;9.40;5.03;;;12.20;99.90;;;;;;4978150;28;20034;-74
2023/03/25 05:37:51;;;;;;;9.07;4.55;;;12.20;99.90;;;;;;4972022;28;20065;-74
2023/03/25 05:40:17;;;;;;;10.77;4.60;;;12.10;99.90;;;;;;4969509;28;20117;-74
2023/03/25 05:42:47;;;;;;;9.55;4.28;;;12.10;99.90;;;;;;4975379;28;20034;-73
2023/03/25 05:45:16;;;;;;;11.23;4.57;;;12.00;99.90;;;;;;4971709;28;20105;-73
2023/03/25 05:47:43;;;;;;;24.88;5.70;;;12.10;99.90;;;;;;4971083;28;20041;-75
2023/03/25 05:50:09;;;;;;;5.65;3.80;;;12.10;99.90;;;;;;4972619;28;20452;-76
2023/03/25 05:52:35;;;;;;;8.02;4.70;;;12.10;99.90;;;;;;4970193;28;20034;-73
2023/03/25 05:55:02;;;;;;;10.27;4.28;;;12.20;99.90;;;;;;4972030;28;20061;-74
2023/03/25 05:57:28;;;;;;;6.07;3.92;;;12.30;99.90;;;;;;4954727;28;20075;-75
2023/03/25 05:59:54;;;;;;;10.90;4.18;;;12.30;99.90;;;;;;4974768;28;20042;-74
2023/03/25 06:02:20;;;;;;;8.73;4.35;;;12.40;99.90;;;;;;4982867;28;20026;-75
2023/03/25 06:04:49;;;;;;;7.63;4.28;;;12.50;99.90;;;;;;4980433;28;20528;-73
2023/03/25 06:07:19;;;;;;;12.82;4.32;;;12.60;99.90;;;;;;4974344;28;20428;-76
2023/03/25 06:09:46;;;;;;;8.48;4.25;;;12.70;99.90;;;;;;4972482;28;20034;-75
2023/03/25 06:12:14;;;;;;;9.77;4.45;;;12.80;99.90;;;;;;4973041;28;20034;-74
2023/03/25 06:14:44;;;;;;;8.55;4.15;;;12.80;99.90;;;;;;4973746;28;20169;-74
2023/03/25 06:17:14;;;;;;;7.95;4.03;;;12.50;99.90;;;;;;4974035;28;20029;-74
2023/03/25 06:19:40;;;;;;;7.65;4.10;;;12.60;99.90;;;;;;4978672;28;20027;-75
2023/03/25 06:22:10;;;;;;;8.60;4.10;;;12.70;99.90;;;;;;4982158;28;20031;-74
2023/03/25 06:24:40;;;;;;;12.63;4.50;;;12.70;99.90;;;;;;4972621;28;20035;-75
2023/03/25 06:27:11;;;;;;;7.80;4.43;;;12.80;99.90;;;;;;4974367;28;20023;-75
2023/03/25 06:29:36;;;;;;;17.10;4.53;;;12.70;99.90;;;;;;4969097;28;20366;-74
2023/03/25 06:32:04;;;;;;;6.03;3.75;;;12.70;99.90;;;;;;4966087;28;20034;-76
2023/03/25 06:34:33;;;;;;;7.78;5.03;;;12.70;99.90;;;;;;4975073;28;20558;-74
2023/03/25 06:37:02;;;;;;;13.68;5.13;;;12.70;99.90;;;;;;4985691;28;20117;-75
2023/03/25 06:39:32;;;;;;;12.07;4.28;;;12.90;99.90;;;;;;4983819;28;20057;-74
2023/03/25 06:41:59;;;;;;;8.88;5.70;;;12.90;99.90;;;;;;4974730;28;20054;-73
2023/03/25 06:44:25;;;;;;;10.85;4.70;;;12.90;99.90;;;;;;4985574;28;20054;-76
2023/03/25 06:46:50;;;;;;;6.75;3.65;;;12.90;99.90;;;;;;4973915;28;20040;-76
2023/03/25 06:49:16;;;;;;;10.18;4.22;;;12.90;99.90;;;;;;4978476;28;20026;-75
2023/03/25 06:51:42;;;;;;;12.00;5.40;;;12.90;99.90;;;;;;4974745;28;20482;-74
2023/03/25 06:54:08;;;;;;;8.82;4.47;;;13.00;99.90;;;;;;4963398;28;20040;-74
2023/03/25 06:56:33;;;;;;;7.55;4.93;;;13.00;99.90;;;;;;4977299;28;20035;-75
2023/03/25 06:58:59;;;;;;;8.63;4.10;;;13.00;99.90;;;;;;4966322;28;20026;-74
2023/03/25 07:01:25;;;;;;;10.48;4.63;;;13.00;99.90;;;;;;4982282;28;20041;-74
2023/03/25 07:03:51;;;;;;;11.70;4.97;;;13.00;99.90;;;;;;4977142;28;20046;-76
2023/03/25 07:06:20;;;;;;;7.75;4.45;;;13.20;99.90;;;;;;4981058;28;20030;-74
2023/03/25 07:08:46;;;;;;;12.38;5.35;;;13.30;99.90;;;;;;4976588;28;20031;-76
2023/03/25 07:11:13;;;;;;;8.60;5.07;;;13.50;99.90;;;;;;4975635;28;20559;-74
2023/03/25 07:13:39;;;;;;;10.35;5.20;;;13.70;99.90;;;;;;4978318;28;20093;-73
2023/03/25 07:16:05;;;;;;;11.00;5.03;;;13.70;99.90;;;;;;4974081;28;20060;-73
2023/03/25 07:18:31;;;;;;;9.00;4.70;;;13.80;99.90;;;;;;4967364;28;20030;-73
2023/03/25 07:20:58;;;;;;;12.02;4.90;;;13.70;99.90;;;;;;4973827;28;20046;-73
2023/03/25 07:23:24;;;;;;;8.40;4.97;;;13.60;99.90;;;;;;4973386;28;20492;-73
2023/03/25 07:25:50;;;;;;;10.40;5.57;;;13.70;99.90;;;;;;4970632;28;20074;-73
2023/03/25 07:28:16;;;;;;;10.32;5.65;;;13.80;99.90;;;;;;4969967;28;20035;-72
2023/03/25 07:30:41;;;;;;;12.07;6.05;;;13.70;99.90;;;;;;4971134;28;20041;-74
2023/03/25 07:33:07;;;;;;;7.63;5.18;;;13.70;99.90;;;;;;4970703;28;20035;-74
2023/03/25 07:35:33;;;;;;;10.63;5.40;;;13.70;99.90;;;;;;4968658;28;20038;-72
2023/03/25 07:37:59;;;;;;;7.90;5.50;;;13.80;99.90;;;;;;4977623;28;20800;-72
2023/03/25 07:40:24;;;;;;;9.85;6.50;;;13.80;99.90;;;;;;4968773;28;20552;-72
2023/03/25 07:42:50;;;;;;;13.98;6.60;;;13.60;99.90;;;;;;4978824;28;20041;-73
2023/03/25 07:45:16;;;;;;;9.32;5.78;;;13.60;99.90;;;;;;4970762;28;20090;-74
2023/03/25 07:47:41;;;;;;;9.88;6.10;;;13.60;99.90;;;;;;4974011;28;20479;-74
2023/03/25 07:50:08;;;;;;;11.25;5.60;;;13.60;99.90;;;;;;4976925;28;20528;-75
2023/03/25 07:52:35;;;;;;;9.05;5.78;;;13.60;99.90;;;;;;4976365;28;20031;-72
2023/03/25 07:55:00;;;;;;;8.32;5.85;;;13.40;99.90;;;;;;4975509;28;20038;-75
2023/03/25 07:57:26;;;;;;;8.48;6.07;;;13.40;99.90;;;;;;4972905;28;20053;-73
2023/03/25 07:59:52;;;;;;;12.77;6.28;;;13.40;99.90;;;;;;4970209;28;20503;-74
2023/03/25 08:02:17;;;;;;;8.88;5.63;;;13.50;99.90;;;;;;4970173;28;20549;-75
2023/03/25 08:04:43;;;;;;;11.77;6.13;;;13.40;99.90;;;;;;4975591;28;20043;-74
2023/03/25 08:07:09;;;;;;;9.15;5.40;;;13.50;99.90;;;;;;4970806;28;20031;-73
2023/03/25 08:09:35;;;;;;;7.32;6.03;;;13.50;99.90;;;;;;4976833;28;20823;-73
2023/03/25 08:12:00;;;;;;;10.02;5.35;;;13.50;99.90;;;;;;4972122;28;20081;-75
2023/03/25 08:14:26;;;;;;;9.48;5.97;;;13.50;99.90;;;;;;4975323;28;20061;-74
2023/03/25 08:16:52;;;;;;;8.70;5.80;;;13.60;99.90;;;;;;4974519;28;20096;-73
2023/03/25 08:19:18;;;;;;;10.38;6.00;;;13.60;99.90;;;;;;4972044;28;20038;-73
2023/03/25 08:21:43;;;;;;;9.68;5.55;;;13.60;99.90;;;;;;4973064;28;20035;-73
2023/03/25 08:24:10;;;;;;;9.73;6.13;;;13.70;99.90;;;;;;4974811;28;20051;-74
2023/03/25 08:26:37;;;;;;;22.23;6.28;;;13.70;99.90;;;;;;4978049;28;20390;-72
2023/03/25 08:29:03;;;;;;;11.65;5.45;;;13.80;99.90;;;;;;4978614;28;20069;-72
2023/03/25 08:31:31;;;;;;;10.98;5.70;;;14.00;99.90;;;;;;4984678;28;20535;-74
2023/03/25 08:34:01;;;;;;;10.60;5.82;;;14.10;99.90;;;;;;4981910;28;20128;-72
2023/03/25 08:36:27;;;;;;;7.88;5.60;;;14.20;99.90;;;;;;4973641;28;20026;-72
2023/03/25 08:38:53;;;;;;;9.05;5.05;;;14.20;99.90;;;;;;4988163;28;20041;-74
2023/03/25 08:41:19;;;;;;;9.50;5.15;;;14.30;99.90;;;;;;4986545;28;20030;-73
2023/03/25 08:43:44;;;;;;;10.68;5.00;;;14.40;99.90;;;;;;4987956;28;20407;-72
2023/03/25 08:46:10;;;;;;;7.85;5.45;;;14.20;99.90;;;;;;4977852;28;20046;-74
2023/03/25 08:48:36;;;;;;;6.43;4.38;;;14.30;99.90;;;;;;4987928;28;20030;-73
2023/03/25 08:51:03;;;;;;;7.70;5.10;;;14.10;99.90;;;;;;4988046;28;20097;-73
2023/03/25 08:53:28;;;;;;;8.20;5.55;;;14.10;99.90;;;;;;4967643;28;20142;-72
2023/03/25 08:55:56;;;;;;;9.43;5.63;;;14.20;99.90;;;;;;4983413;28;20097;-73
2023/03/25 08:58:22;;;;;;;9.07;5.40;;;14.20;99.90;;;;;;4986171;28;20048;-73
2023/03/25 09:00:54;;;;;;;8.90;4.95;;;14.30;99.90;;;;;;4989176;28;20701;-72
2023/03/25 09:03:21;;;;;;;7.10;5.00;;;14.40;99.90;;;;;;4988770;28;20453;-73
2023/03/25 09:05:47;;;;;;;9.13;5.22;;;14.50;99.90;;;;;;4988444;28;20034;-73
2023/03/25 09:08:13;;;;;;;10.20;5.03;;;14.60;99.90;;;;;;4986874;28;20392;-73
2023/03/25 09:10:39;;;;;;;9.48;4.82;;;14.50;99.90;;;;;;4982993;28;20109;-72
2023/03/25 09:13:05;;;;;;;8.02;4.53;;;14.50;99.90;;;;;;4983434;28;20114;-73
2023/03/25 09:15:31;;;;;;;6.57;2.97;;;14.60;99.90;;;;;;4976258;28;20386;-72
2023/03/25 09:17:56;;;;;;;9.05;4.18;;;15.40;99.90;;;;;;4973158;28;20094;-72
2023/03/25 09:20:22;;;;;;;7.68;3.75;;;15.90;99.90;;;;;;4983762;28;20093;-74
2023/03/25 09:22:48;;;;;;;7.10;3.80;;;19.30;96.10;;;;;;4985783;28;20038;-73
2023/03/25 09:25:14;;;;;;;8.30;3.35;;;22.00;93.00;;;;;;4987248;28;20026;-72
2023/03/25 09:27:40;;;;;;;7.65;3.83;;;23.10;91.50;;;;;;4990508;28;20036;-72
2023/03/25 09:30:07;;;;;;;5.88;3.13;;;23.90;90.50;;;;;;4990958;28;20146;-72
2023/03/25 09:32:33;;;;;;;7.78;3.45;;;24.40;89.50;;;;;;4986393;28;20031;-73
2023/03/25 09:34:59;;;;;;;5.47;2.92;;;24.50;87.90;;;;;;4980034;28;20030;-74
2023/03/25 09:37:25;;;;;;;10.93;3.35;;;24.90;86.90;;;;;;4986209;28;20518;-73
2023/03/25 09:39:51;;;;;;;8.02;3.70;;;25.10;86.60;;;;;;4980267;28;20031;-72
2023/03/25 09:42:36;;;;;;;6.13;3.20;;;24.70;86.00;;;;;;4981018;28;20034;-74
2023/03/25 09:45:21;;;;;;;7.35;3.30;;;24.00;85.00;;;;;;4979773;28;20067;-73
2023/03/25 09:48:09;;;;;;;7.13;3.40;;;22.60;86.50;;;;;;4981179;28;20026;-73
2023/03/25 09:50:36;;;;;;;6.72;3.00;;;20.10;90.00;;;;;;4959651;28;20536;-75
2023/03/25 09:53:29;;;;;;;6.03;3.72;;;18.70;92.00;;;;;;4979026;28;20037;-72
2023/03/25 09:55:55;;;;;;;5.72;3.42;;;17.90;93.50;;;;;;4977863;28;20030;-73
2023/03/25 09:58:21;;;;;;;5.82;2.50;;;17.30;93.10;;;;;;4978877;28;20026;-72
2023/03/25 10:00:54;;;;;;;6.60;3.10;;;17.30;92.70;;;;;;4977805;28;20491;-73
2023/03/25 10:03:57;;;;;;;5.20;2.90;;;17.10;93.30;;;;;;4977908;28;20069;-73
2023/03/25 10:06:25;;;;;;;5.05;2.80;;;17.10;92.40;;;;;;4978146;28;20352;-72
2023/03/25 10:09:15;;;;;;;4.82;3.15;;;17.10;93.00;;;;;;4974532;28;20725;-71
2023/03/25 10:11:50;;;;;;;4.85;2.50;;;17.00;93.30;;;;;;4978206;28;20034;-73
2023/03/25 10:14:24;;;;;;;7.22;2.70;;;17.00;92.70;;;;;;4975978;28;20054;-73
2023/03/25 10:17:22;;;;;;;7.57;2.90;;;17.50;93.50;;;;;;4980167;28;20516;-73
2023/03/25 10:20:21;;;;;;;5.78;2.60;;;17.80;92.80;;;;;;4975858;28;20034;-76
2023/03/25 10:22:53;;;;;;;6.68;2.50;;;17.80;93.00;;;;;;4975246;28;20049;-72
2023/03/25 10:25:24;;;;;;;4.97;2.65;;;17.80;92.90;;;;;;4974380;28;20038;-72
2023/03/25 10:27:51;;;;;;;3.63;2.10;;;17.90;92.60;;;;;;4977646;28;20058;-72
2023/03/25 10:30:16;;;;;;;5.30;2.17;;;18.10;92.80;;;;;;4975219;28;20465;-73
2023/03/25 10:32:54;;;;;;;7.70;2.42;;;18.10;92.00;;;;;;4978440;28;20115;-74
2023/03/25 10:35:32;;;;;;;4.97;2.17;;;18.30;91.50;;;;;;4977227;28;20050;-74
2023/03/25 10:38:06;;;;;;;3.20;1.73;;;18.20;91.50;;;;;;4976982;28;20088;-72
2023/03/25 10:40:48;;;;;;;4.03;1.60;;;18.00;90.10;;;;;;4978119;28;20507;-75
2023/03/25 10:43:33;;;;;;;4.03;2.05;;;18.40;90.00;;;;;;4979562;28;20293;-72
2023/03/25 10:46:24;;;;;;;7.75;2.03;;;18.50;90.40;;;;;;4982497;28;20046;-73
2023/03/25 10:48:50;;;;;;;4.70;1.30;;;18.30;90.30;;;;;;4974010;28;20033;-72
2023/03/25 10:51:23;;;;;;;9.05;2.17;;;18.60;88.90;;;;;;4976258;28;20110;-73
2023/03/25 10:53:51;;;;;;;5.00;1.70;;;18.70;91.40;;;;;;4978550;28;20034;-73
2023/03/25 10:56:38;;;;;;;8.55;2.42;;;18.70;90.10;;;;;;4976594;28;20023;-74
2023/03/25 10:59:18;;;;;;;3.50;1.88;;;18.20;89.80;;;;;;4973098;28;20499;-72
2023/03/25 11:01:44;;;;;;;5.40;2.20;;;18.30;90.60;;;;;;4978287;28;20034;-73
2023/03/25 11:04:18;;;;;;;6.10;1.63;;;18.50;91.10;;;;;;4977634;28;20430;-72
2023/03/25 11:06:51;;;;;;;4.18;2.08;;;18.40;90.20;;;;;;4977191;28;20152;-73
2023/03/25 11:09:18;;;;;;;4.07;1.43;;;18.30;89.20;;;;;;4980027;28;20038;-74
2023/03/25 11:11:44;;;;;;;5.05;1.60;;;18.20;89.80;;;;;;4978092;28;20031;-74
2023/03/25 11:14:11;;;;;;;4.60;1.58;;;18.10;89.40;;;;;;4978489;28;20080;-73
2023/03/25 11:16:45;;;;;;;4.65;1.73;;;17.90;88.70;;;;;;4974435;28;20480;-73
2023/03/25 11:19:41;;;;;;;4.63;1.70;;;17.80;88.10;;;;;;4981491;28;20477;-73
2023/03/25 11:22:20;;;;;;;3.45;1.15;;;18.00;89.80;;;;;;4952782;28;20046;-73
2023/03/25 11:24:49;;;;;;;2.42;1.20;;;18.10;89.10;;;;;;4979407;28;20026;-74
2023/03/25 11:27:22;;;;;;;5.03;1.50;;;18.00;89.00;;;;;;4977254;28;20038;-73
2023/03/25 11:29:52;;;;;;;3.30;1.48;;;17.90;89.70;;;;;;4977910;28;20026;-73
2023/03/25 11:32:23;;;;;;;2.60;1.35;;;17.80;89.70;;;;;;4975596;28;20097;-74
2023/03/25 11:34:50;;;;;;;4.75;1.40;;;17.80;90.10;;;;;;4979615;28;20022;-72
2023/03/25 11:37:21;;;;;;;3.75;1.35;;;17.70;90.30;;;;;;4977395;28;20463;-73
2023/03/25 11:39:53;;;;;;;7.47;1.90;;;17.70;90.10;;;;;;4975793;28;20037;-73
2023/03/25 11:42:28;;;;;;;4.25;1.20;;;17.60;89.40;;;;;;4977999;28;20057;-72
2023/03/25 11:44:58;;;;;;;9.20;1.85;;;17.60;90.00;;;;;;4977896;28;20051;-74
2023/03/25 11:47:35;;;;;;;3.05;1.45;;;17.70;90.40;;;;;;4978231;28;20392;-73
2023/03/25 11:50:02;;;;;;;4.22;1.23;;;17.90;90.20;;;;;;4974899;28;20097;-74
2023/03/25 11:52:40;;;;;;;9.52;1.95;;;17.70;89.70;;;;;;4976129;28;20490;-72
2023/03/25 11:55:11;;;;;;;3.90;1.20;;;17.80;91.40;;;;;;4976430;28;20117;-72
2023/03/25 11:57:40;;;;;;;3.42;1.98;;;17.70;87.30;;;;;;4977752;28;20106;-74
2023/03/25 12:00:29;;;;;;;4.22;1.80;;;17.60;90.40;;;;;;4976821;28;20058;-74
2023/03/25 12:03:12;;;;;;;5.07;0.98;;;17.80;91.20;;;;;;4976683;28;20505;-72
2023/03/25 12:05:38;;;;;;;6.40;1.30;;;17.80;90.20;;;;;;4976610;28;20051;-73
2023/03/25 12:08:14;;;;;;;1.55;0.65;;;18.10;90.60;;;;;;4978081;28;20030;-73
2023/03/25 12:11:06;;;;;;;2.70;0.82;;;18.30;86.80;;;;;;4981629;28;20620;-73
2023/03/25 12:13:44;;;;;;;2.05;0.63;;;18.70;86.10;;;;;;4976871;28;20156;-73
2023/03/25 12:16:22;;;;;;;2.40;1.00;;;18.80;82.10;;;;;;4980620;28;20027;-74
2023/03/25 12:19:05;;;;;;;1.30;0.40;;;19.00;79.20;;;;;;4982411;28;20037;-74
2023/03/25 12:21:59;;;;;;;0.80;0.43;;;19.20;78.40;;;;;;4979039;28;20037;-74
2023/03/25 12:24:31;;;;;;;1.97;0.80;;;19.20;78.80;;;;;;4985092;28;20070;-73
2023/03/25 12:27:51;;;;;;;1.30;0.70;;;19.20;77.50;;;;;;4983437;28;20657;-72
2023/03/25 12:30:32;;;;;;;2.10;0.52;;;19.10;76.90;;;;;;4960173;28;20077;-73
2023/03/25 12:33:29;;;;;;;2.35;0.90;;;19.20;76.20;;;;;;4958876;28;20110;-73
2023/03/25 12:36:00;;;;;;;2.95;1.08;;;19.40;75.60;;;;;;4976594;28;20084;-73
2023/03/25 12:38:45;;;;;;;1.20;0.52;;;19.50;75.60;;;;;;4980634;28;20129;-73
2023/03/25 12:41:13;;;;;;;2.47;0.70;;;19.20;74.40;;;;;;4981679;28;20493;-73
2023/03/25 12:44:05;;;;;;;2.35;0.85;;;19.30;74.70;;;;;;4980610;28;20560;-73
2023/03/25 12:46:37;;;;;;;1.65;0.60;;;19.30;74.90;;;;;;4977784;28;20045;-74
2023/03/25 12:49:04;;;;;;;3.90;0.82;;;19.40;74.30;;;;;;4981598;28;20049;-73
2023/03/25 12:51:41;;;;;;;3.05;0.63;;;19.70;75.40;;;;;;4980491;28;20031;-73
2023/03/25 12:54:16;;;;;;;2.10;0.63;;;20.20;76.90;;;;;;4983182;28;20030;-72
2023/03/25 12:56:57;;;;;;;1.73;0.77;;;20.40;75.00;;;;;;4983863;28;20030;-73
2023/03/25 12:59:23;;;;;;;2.08;0.50;;;20.40;74.10;;;;;;4984242;28;20037;-73
2023/03/25 13:02:19;;;;;;;1.73;0.60;;;20.20;73.70;;;;;;4978370;28;20023;-73
2023/03/25 13:04:57;;;;;;;2.42;0.70;;;20.20;71.50;;;;;;4979078;28;20038;-72
2023/03/25 13:07:31;;;;;;;2.20;0.70;;;20.20;73.60;;;;;;4980239;28;20507;-74